Terminal Aerodrome Forecast
Issued by NWS

Home | Current Version | Previous Version | Text Only | Print | Product List | Glossary Off
Versions: 1 2 3 4 5 6 7 8 9 10 11 12 13

000
FTUS45 KGGW 220520
TAFOLF
TAF
KOLF 220520Z 2206/2306 06010KT P6SM -RA SCT010 OVC050
     FM221700 07016G24KT P6SM -RA OVC020
     FM230000 08016KT P6SM VCSH OVC035=

USA.gov is the U.S. government's official web portal to all federal, state and local government web resources and services.